Blanch, North Carolina
Current Conditions -  °F | °C
As of 1:53 PM on Thursday 27 Nov 2014 (Local Time) from KDAN Reporting Station
Broken Clouds Broken Clouds  
Wind Chill: 42°   Ceiling: 5000
Heat Index: 47°   Visibility: 10mi
Dew Point: 35°   Wind: 10mph
Humidity: 63%   Direction: 270°W
Pressure: 30.07"   Gusts: NA
Location:  36.51°N, 79.3°W
Report Text: KDAN 271853Z AUTO 27009KT 10SM SCT042 BKN050 BKN070 08/02 A3007 RMK AO2 SLP178 T00830017
Loading
Personal Weather Stations






























Interactive Weather Map New forecast layout! Learn more

10-Day Weather Forecast

Advertisements
Track Severe Weather on mobile